createdAt,value
2022-10-26T00:00:41.714Z,33.55
2022-10-26T00:03:08.632Z,38.03
2022-10-26T00:05:36.023Z,35.20
2022-10-26T00:08:03.434Z,34.35
2022-10-26T00:10:31.729Z,36.15
2022-10-26T00:12:58.913Z,36.20
2022-10-26T00:15:25.869Z,35.28
2022-10-26T00:17:52.815Z,33.55
2022-10-26T00:20:19.734Z,30.63
2022-10-26T00:22:46.818Z,35.70
2022-10-26T00:25:13.796Z,36.80
2022-10-26T00:27:40.899Z,33.42
2022-10-26T00:30:08.470Z,48.30
2022-10-26T00:32:35.428Z,46.00
2022-10-26T00:35:10.616Z,36.50
2022-10-26T00:37:48.740Z,41.17
2022-10-26T00:40:15.817Z,32.58
2022-10-26T00:42:42.749Z,32.03
2022-10-26T00:45:27.961Z,41.05
2022-10-26T00:48:07.380Z,38.53
2022-10-26T00:50:39.145Z,37.92
2022-10-26T00:53:08.003Z,38.00
2022-10-26T00:55:48.700Z,36.72
2022-10-26T00:58:16.487Z,47.88
2022-10-26T01:00:43.867Z,37.72
2022-10-26T01:03:11.793Z,43.10
2022-10-26T01:05:42.529Z,39.42
2022-10-26T01:08:10.375Z,39.35
2022-10-26T01:10:40.202Z,40.10
2022-10-26T01:13:07.658Z,40.10
2022-10-26T01:15:51.961Z,49.08
2022-10-26T01:18:57.264Z,42.92
2022-10-26T01:21:27.251Z,40.95
2022-10-26T01:23:59.979Z,40.20
2022-10-26T01:26:44.217Z,37.92
2022-10-26T01:29:40.821Z,44.67
2022-10-26T01:32:23.246Z,40.03
2022-10-26T01:35:03.341Z,38.13
2022-10-26T01:37:36.425Z,40.90
2022-10-26T01:40:16.582Z,41.50
2022-10-26T01:42:48.791Z,43.13
2022-10-26T01:45:17.313Z,40.85
2022-10-26T01:47:46.193Z,33.28
2022-10-26T01:50:13.898Z,48.88
2022-10-26T01:52:41.240Z,43.33
2022-10-26T01:55:32.934Z,38.20
2022-10-26T01:58:19.752Z,41.30
2022-10-26T02:01:14.966Z,36.08
2022-10-26T02:04:01.869Z,41.63
2022-10-26T02:06:44.972Z,37.65
2022-10-26T02:09:29.988Z,42.45
2022-10-26T02:11:58.386Z,40.28
2022-10-26T02:14:48.292Z,40.80
2022-10-26T02:17:34.300Z,40.90
2022-10-26T02:20:05.683Z,40.00
2022-10-26T02:22:40.240Z,40.42
2022-10-26T02:25:12.146Z,46.05
2022-10-26T02:27:44.108Z,49.03
2022-10-26T02:30:12.665Z,41.33
2022-10-26T02:32:48.385Z,51.08
2022-10-26T02:35:18.924Z,44.75
2022-10-26T02:37:47.940Z,48.53
2022-10-26T02:40:19.365Z,48.50
2022-10-26T02:42:47.525Z,41.92
2022-10-26T02:45:20.880Z,41.53
2022-10-26T02:47:48.229Z,44.67
2022-10-26T02:50:16.916Z,51.80
2022-10-26T02:53:05.524Z,56.30
2022-10-26T02:55:40.669Z,46.65
2022-10-26T02:58:13.517Z,44.25
2022-10-26T03:00:40.594Z,47.40
2022-10-26T03:03:07.955Z,47.50
2022-10-26T03:05:36.867Z,48.70
2022-10-26T03:08:04.368Z,44.03
2022-10-26T03:10:33.743Z,54.90
2022-10-26T03:13:00.747Z,44.55
2022-10-26T03:15:27.750Z,51.15
2022-10-26T03:17:54.853Z,48.58
2022-10-26T03:20:22.299Z,44.15
2022-10-26T03:22:49.352Z,44.85
2022-10-26T03:25:16.876Z,44.08
2022-10-26T03:27:44.473Z,41.10
2022-10-26T03:30:11.759Z,45.80
2022-10-26T03:32:39.078Z,47.33
2022-10-26T03:35:06.253Z,40.50
2022-10-26T03:37:34.467Z,44.10
2022-10-26T03:40:01.462Z,42.47
2022-10-26T03:42:28.471Z,41.13
2022-10-26T03:44:55.462Z,45.03
2022-10-26T03:47:22.570Z,49.53
2022-10-26T03:49:49.544Z,39.33
2022-10-26T03:52:16.498Z,47.97
2022-10-26T03:54:43.451Z,43.30
2022-10-26T03:57:10.418Z,40.50
2022-10-26T03:59:37.472Z,44.47
2022-10-26T04:02:04.480Z,41.45
2022-10-26T04:04:31.499Z,43.65
2022-10-26T04:06:58.619Z,55.55
2022-10-26T04:09:25.751Z,45.03
2022-10-26T04:11:52.720Z,42.13
2022-10-26T04:14:19.694Z,42.80
2022-10-26T04:16:46.754Z,45.67
2022-10-26T04:19:13.940Z,40.63
2022-10-26T04:21:40.948Z,46.00
2022-10-26T04:24:10.019Z,44.33
2022-10-26T04:26:37.389Z,40.97
2022-10-26T04:29:07.712Z,36.08
2022-10-26T04:31:34.743Z,40.58
2022-10-26T04:34:01.895Z,41.33
2022-10-26T04:36:29.935Z,39.72
2022-10-26T04:38:57.191Z,40.25
2022-10-26T04:41:24.139Z,40.72
2022-10-26T04:43:51.232Z,40.33
2022-10-26T04:46:18.438Z,49.90
2022-10-26T04:48:45.448Z,53.70
2022-10-26T04:51:12.680Z,39.00
2022-10-26T04:53:39.583Z,42.60
2022-10-26T04:56:06.796Z,38.88
2022-10-26T04:58:33.742Z,40.78
2022-10-26T05:01:02.841Z,46.58
2022-10-26T05:03:30.278Z,53.55
2022-10-26T05:06:00.436Z,44.08
2022-10-26T05:08:30.352Z,41.97
2022-10-26T05:10:57.382Z,39.40
2022-10-26T05:13:24.355Z,47.53
2022-10-26T05:15:54.361Z,37.20
2022-10-26T05:18:21.709Z,37.83
2022-10-26T05:20:50.303Z,38.90
2022-10-26T05:23:18.705Z,38.22
2022-10-26T05:25:46.567Z,42.10
2022-10-26T05:28:14.961Z,37.22
2022-10-26T05:30:43.472Z,38.80
2022-10-26T05:33:12.171Z,46.78
2022-10-26T05:35:39.658Z,43.70
2022-10-26T05:38:11.228Z,38.08
2022-10-26T05:40:38.322Z,47.90
2022-10-26T05:43:05.278Z,48.28
2022-10-26T05:45:32.235Z,41.65
2022-10-26T05:48:02.573Z,50.47
2022-10-26T05:50:30.500Z,43.22
2022-10-26T05:52:57.458Z,47.25
2022-10-26T05:55:24.980Z,41.10
2022-10-26T05:57:52.373Z,43.28
2022-10-26T06:00:24.957Z,54.22
2022-10-26T06:06:03.972Z,42.17
2022-10-26T06:08:33.850Z,41.30
2022-10-26T06:11:03.115Z,41.97
2022-10-26T06:13:30.602Z,43.72
2022-10-26T06:16:10.226Z,43.58
2022-10-26T06:18:55.367Z,44.25
2022-10-26T06:21:35.429Z,47.95
2022-10-26T06:24:10.074Z,41.70
2022-10-26T06:27:15.671Z,39.20
2022-10-26T06:29:45.538Z,53.20
2022-10-26T06:32:12.562Z,42.83
2022-10-26T06:34:45.171Z,41.70
2022-10-26T06:37:13.172Z,43.75
2022-10-26T06:39:47.893Z,40.47
2022-10-26T06:42:17.368Z,37.80
2022-10-26T06:44:44.842Z,46.17
2022-10-26T06:47:50.352Z,41.40
2022-10-26T06:50:50.428Z,37.20
2022-10-26T06:53:31.178Z,34.70
2022-10-26T06:55:59.754Z,41.05
2022-10-26T06:58:31.150Z,40.08
2022-10-26T07:00:58.340Z,38.42
2022-10-26T07:03:25.342Z,38.28
2022-10-26T07:05:52.472Z,36.20
2022-10-26T07:08:19.551Z,35.85
2022-10-26T07:10:49.766Z,42.00
2022-10-26T07:13:17.514Z,38.40
2022-10-26T07:15:45.114Z,39.33
2022-10-26T07:18:12.112Z,37.47
2022-10-26T07:20:40.465Z,37.33
2022-10-26T07:23:10.975Z,38.63
2022-10-26T07:25:40.341Z,35.20
2022-10-26T07:28:10.463Z,38.80
2022-10-26T07:30:39.159Z,46.30
2022-10-26T07:33:07.456Z,42.65
2022-10-26T07:35:35.150Z,34.95
2022-10-26T07:38:03.151Z,42.97
2022-10-26T07:40:30.618Z,37.67
2022-10-26T07:42:59.271Z,36.72
2022-10-26T07:45:27.920Z,42.83
2022-10-26T07:47:55.127Z,33.78
2022-10-26T07:50:22.869Z,34.40
2022-10-26T07:52:50.253Z,32.65
2022-10-26T07:55:17.584Z,37.35
2022-10-26T07:57:44.583Z,32.08
2022-10-26T08:00:12.262Z,38.15
2022-10-26T08:02:39.139Z,36.80
2022-10-26T08:05:06.468Z,37.65
2022-10-26T08:07:33.473Z,30.40
2022-10-26T08:10:00.952Z,29.73
2022-10-26T08:12:27.884Z,34.78
2022-10-26T08:14:54.801Z,31.80
2022-10-26T08:17:22.995Z,33.72
2022-10-26T08:19:49.925Z,28.40
2022-10-26T08:22:16.904Z,42.80
2022-10-26T08:24:46.971Z,32.92
2022-10-26T08:27:15.175Z,32.67
2022-10-26T08:29:42.589Z,38.25
2022-10-26T08:32:09.742Z,28.20
2022-10-26T08:34:36.805Z,41.20
2022-10-26T08:37:03.845Z,29.02
2022-10-26T08:39:31.060Z,37.83
2022-10-26T08:42:11.641Z,35.67
2022-10-26T08:44:46.584Z,31.55
2022-10-26T08:47:16.197Z,30.45
2022-10-26T08:49:52.666Z,35.88
2022-10-26T08:52:25.794Z,29.92
2022-10-26T08:54:56.648Z,31.52
2022-10-26T08:57:37.588Z,31.30
2022-10-26T09:00:11.494Z,33.58
2022-10-26T09:02:38.484Z,31.75
2022-10-26T09:05:16.224Z,41.35
2022-10-26T09:08:07.307Z,32.78
2022-10-26T09:10:45.958Z,32.95
2022-10-26T09:13:34.226Z,29.33
2022-10-26T09:16:19.913Z,29.88
2022-10-26T09:18:55.846Z,34.85
2022-10-26T09:21:27.744Z,26.48
2022-10-26T09:24:16.723Z,31.05
2022-10-26T09:26:54.957Z,30.45
2022-10-26T09:29:44.415Z,33.13
2022-10-26T09:32:25.039Z,33.42
2022-10-26T09:34:55.940Z,33.17
2022-10-26T09:37:47.206Z,34.50
2022-10-26T09:40:34.294Z,30.98
2022-10-26T09:43:10.402Z,31.17
2022-10-26T09:45:45.414Z,33.10
2022-10-26T09:48:22.623Z,34.75
2022-10-26T09:50:51.372Z,38.22
2022-10-26T09:53:18.361Z,36.72
2022-10-26T09:55:51.180Z,35.35
2022-10-26T09:58:29.805Z,35.80
2022-10-26T10:00:57.851Z,31.50
2022-10-26T10:03:30.659Z,37.22
2022-10-26T10:06:19.462Z,39.33
2022-10-26T10:09:10.991Z,32.42
2022-10-26T10:11:57.942Z,30.67
2022-10-26T10:14:35.956Z,39.60
2022-10-26T10:17:20.008Z,30.90
2022-10-26T10:19:47.185Z,35.63
2022-10-26T10:22:20.017Z,35.88
2022-10-26T10:25:01.632Z,29.65
2022-10-26T10:27:30.450Z,35.72
2022-10-26T10:30:20.639Z,35.60
2022-10-26T10:33:05.273Z,31.95
2022-10-26T10:35:32.810Z,30.00
2022-10-26T10:38:00.260Z,34.45
2022-10-26T10:40:30.814Z,32.45
2022-10-26T10:43:14.852Z,29.55
2022-10-26T10:45:52.010Z,27.67
2022-10-26T10:48:24.752Z,30.92
2022-10-26T10:50:57.720Z,34.45
2022-10-26T10:53:34.841Z,38.63
2022-10-26T10:56:25.727Z,31.73
2022-10-26T10:59:11.270Z,31.75
2022-10-26T11:01:44.667Z,34.88
2022-10-26T11:04:33.289Z,34.83
2022-10-26T11:07:03.628Z,33.83
2022-10-26T11:09:34.244Z,31.30
2022-10-26T11:12:16.931Z,26.58
2022-10-26T11:14:53.654Z,32.47
2022-10-26T11:17:29.155Z,30.02
2022-10-26T11:20:03.776Z,30.23
2022-10-26T11:22:42.487Z,28.60
2022-10-26T11:25:20.454Z,23.80
2022-10-26T11:27:56.319Z,26.65
2022-10-26T11:30:27.702Z,22.30
2022-10-26T11:33:10.321Z,25.63
2022-10-26T11:36:03.159Z,29.80
2022-10-26T11:39:09.204Z,25.08
2022-10-26T11:42:02.047Z,25.05
2022-10-26T11:44:53.072Z,25.17
2022-10-26T11:47:26.674Z,22.88
2022-10-26T11:49:59.547Z,22.80
2022-10-26T11:52:35.875Z,25.75
2022-10-26T11:55:04.863Z,21.98
2022-10-26T11:57:37.102Z,26.33
2022-10-26T12:00:18.401Z,31.93
2022-10-26T12:02:49.377Z,22.42
2022-10-26T12:05:16.297Z,28.98
2022-10-26T12:07:57.838Z,24.60
2022-10-26T12:10:29.532Z,30.33
2022-10-26T12:13:22.175Z,27.42
2022-10-26T12:16:22.012Z,25.83
2022-10-26T12:19:01.175Z,25.90
2022-10-26T12:21:30.646Z,28.73
2022-10-26T12:24:20.808Z,24.77
2022-10-26T12:26:56.995Z,26.45
2022-10-26T12:29:24.756Z,26.35
2022-10-26T12:31:51.700Z,24.02
2022-10-26T12:34:30.663Z,29.20
2022-10-26T12:36:57.668Z,25.73
2022-10-26T12:39:30.851Z,24.80
2022-10-26T12:42:06.678Z,26.55
2022-10-26T12:44:56.607Z,27.13
2022-10-26T12:47:32.266Z,23.80
2022-10-26T12:50:08.229Z,31.52
2022-10-26T12:52:57.800Z,29.85
2022-10-26T12:55:49.530Z,29.60
2022-10-26T12:58:53.812Z,22.25
2022-10-26T13:01:44.669Z,24.15
2022-10-26T13:04:33.291Z,27.55
2022-10-26T13:07:27.773Z,27.90
2022-10-26T13:10:12.774Z,28.27
2022-10-26T13:12:57.490Z,29.45
2022-10-26T13:15:26.464Z,27.63
2022-10-26T13:18:18.265Z,25.40
2022-10-26T13:21:13.708Z,28.27
2022-10-26T13:23:47.633Z,37.53
2022-10-26T13:26:20.171Z,33.38
2022-10-26T13:28:54.018Z,31.58
2022-10-26T13:31:31.217Z,31.70
2022-10-26T13:34:12.201Z,32.78
2022-10-26T13:36:45.016Z,35.67
2022-10-26T13:39:22.446Z,30.35
2022-10-26T13:41:52.626Z,33.35
2022-10-26T13:44:27.738Z,41.92
2022-10-26T13:47:03.891Z,34.50
2022-10-26T13:49:45.508Z,31.25
2022-10-26T13:52:21.263Z,36.67
2022-10-26T13:54:56.146Z,37.47
2022-10-26T13:57:35.510Z,37.42
2022-10-26T14:00:14.537Z,33.10
2022-10-26T14:02:43.621Z,47.60
2022-10-26T14:05:13.469Z,41.85
2022-10-26T14:07:45.704Z,37.60
2022-10-26T14:10:35.136Z,35.33
2022-10-26T14:13:07.893Z,35.47
2022-10-26T14:15:36.364Z,43.17
2022-10-26T14:18:04.503Z,38.17
2022-10-26T14:20:32.349Z,31.10
2022-10-26T14:22:59.321Z,33.90
2022-10-26T14:25:41.749Z,32.97
2022-10-26T14:28:28.007Z,35.83
2022-10-26T14:30:55.068Z,39.47
2022-10-26T14:33:29.186Z,41.28
2022-10-26T14:35:56.974Z,37.05
2022-10-26T14:38:27.284Z,33.75
2022-10-26T14:40:57.493Z,34.20
2022-10-26T14:43:25.906Z,30.90
2022-10-26T14:45:54.458Z,37.58
2022-10-26T14:48:41.552Z,36.65
2022-10-26T14:51:17.349Z,37.95
2022-10-26T14:53:57.492Z,35.17
2022-10-26T14:56:36.511Z,40.08
2022-10-26T14:59:18.561Z,39.90
2022-10-26T15:02:11.570Z,42.15
2022-10-26T15:04:40.952Z,39.58
2022-10-26T15:07:09.766Z,42.92
2022-10-26T15:09:45.073Z,39.05
2022-10-26T15:12:38.993Z,41.35
2022-10-26T15:15:11.786Z,31.77
2022-10-26T15:18:01.620Z,46.10
2022-10-26T15:20:30.033Z,43.67
2022-10-26T15:23:02.172Z,35.17
2022-10-26T15:25:32.351Z,47.08
2022-10-26T15:28:25.226Z,44.38
2022-10-26T15:31:10.614Z,39.45
2022-10-26T15:33:43.550Z,42.85
2022-10-26T15:36:14.547Z,41.60
2022-10-26T15:38:42.114Z,40.70
2022-10-26T15:41:38.859Z,48.60
2022-10-26T15:44:18.007Z,47.88
2022-10-26T15:46:46.159Z,46.53
2022-10-26T15:49:21.199Z,39.38
2022-10-26T15:51:49.192Z,46.75
2022-10-26T15:54:16.415Z,45.00
2022-10-26T15:56:44.401Z,39.65
2022-10-26T15:59:19.023Z,44.65
2022-10-26T16:01:46.409Z,49.53
2022-10-26T16:04:13.598Z,55.38
2022-10-26T16:06:42.046Z,47.50
2022-10-26T16:09:14.736Z,43.65
2022-10-26T16:11:42.307Z,46.27
2022-10-26T16:14:10.873Z,51.10
2022-10-26T16:16:37.917Z,53.08
2022-10-26T16:19:29.317Z,38.60
2022-10-26T16:21:52.308Z,63.72
2022-10-26T16:24:19.265Z,54.33
2022-10-26T16:26:46.571Z,56.17
2022-10-26T16:29:13.931Z,50.25
2022-10-26T16:31:40.854Z,63.00
2022-10-26T16:34:07.758Z,57.85
2022-10-26T16:36:34.890Z,51.58
2022-10-26T16:41:34.735Z,44.92
2022-10-26T16:44:01.637Z,45.20
2022-10-26T16:46:28.632Z,44.78
2022-10-26T16:48:55.574Z,47.45
2022-10-26T16:51:28.745Z,49.45
2022-10-26T16:53:57.066Z,42.70
2022-10-26T16:56:28.259Z,49.35
2022-10-26T16:58:56.922Z,51.50
2022-10-26T17:01:24.532Z,49.33
2022-10-26T17:03:53.024Z,48.60
2022-10-26T17:06:20.564Z,45.08
2022-10-26T17:08:47.988Z,47.42
2022-10-26T17:11:18.158Z,53.70
2022-10-26T17:13:45.834Z,47.50
2022-10-26T17:16:16.135Z,54.45
2022-10-26T17:18:44.786Z,53.50
2022-10-26T17:21:13.271Z,44.13
2022-10-26T17:23:40.668Z,42.80
2022-10-26T17:26:10.688Z,47.03
2022-10-26T17:28:38.000Z,48.25
2022-10-26T17:31:09.594Z,48.13
2022-10-26T17:33:37.932Z,52.33
2022-10-26T17:36:07.019Z,51.80
2022-10-26T17:38:36.351Z,62.15
2022-10-26T17:41:06.203Z,45.60
2022-10-26T17:43:34.659Z,54.53
2022-10-26T17:46:04.054Z,48.40
2022-10-26T17:48:32.063Z,51.03
2022-10-26T17:51:00.413Z,49.63
2022-10-26T17:53:27.758Z,46.60
2022-10-26T17:56:05.245Z,59.35
2022-10-26T17:58:33.743Z,51.45
2022-10-26T18:01:06.278Z,51.22
2022-10-26T18:03:34.264Z,56.10
2022-10-26T18:06:02.053Z,59.08
2022-10-26T18:08:32.567Z,49.40
2022-10-26T18:10:59.925Z,48.38
2022-10-26T18:13:33.802Z,56.25
2022-10-26T18:16:08.196Z,51.88
2022-10-26T18:18:36.106Z,53.70
2022-10-26T18:21:09.851Z,45.00
2022-10-26T18:26:14.455Z,49.85
2022-10-26T18:28:42.093Z,54.15
2022-10-26T18:31:11.947Z,52.65
2022-10-26T18:33:39.510Z,47.63
2022-10-26T18:36:10.121Z,52.80
2022-10-26T18:38:37.657Z,47.33
2022-10-26T18:41:05.004Z,55.30
2022-10-26T18:43:32.085Z,54.35
2022-10-26T18:46:07.141Z,59.50
2022-10-26T18:48:34.892Z,51.60
2022-10-26T18:51:15.092Z,47.20
2022-10-26T18:53:43.227Z,51.58
2022-10-26T18:56:13.059Z,45.78
2022-10-26T18:58:42.643Z,47.28
2022-10-26T19:01:14.456Z,37.72
2022-10-26T19:03:42.338Z,40.60
2022-10-26T19:06:18.776Z,43.97
2022-10-26T19:08:46.903Z,48.42
2022-10-26T19:11:15.921Z,41.63
2022-10-26T19:13:43.612Z,41.97
2022-10-26T19:16:17.477Z,45.03
2022-10-26T19:19:00.334Z,41.05
2022-10-26T19:21:29.384Z,43.90
2022-10-26T19:23:58.223Z,53.45
2022-10-26T19:26:33.408Z,50.10
2022-10-26T19:29:06.082Z,41.15
2022-10-26T19:31:33.816Z,42.08
2022-10-26T19:34:01.899Z,49.55
2022-10-26T19:36:29.934Z,46.63
2022-10-26T19:38:57.278Z,46.10
2022-10-26T19:41:26.786Z,45.67
2022-10-26T19:43:55.143Z,45.53
2022-10-26T19:46:24.608Z,40.08
2022-10-26T19:48:54.035Z,41.83
2022-10-26T19:51:22.043Z,40.28
2022-10-26T19:53:49.082Z,51.67
2022-10-26T19:56:16.391Z,40.95
2022-10-26T19:58:44.532Z,44.85
2022-10-26T20:01:13.593Z,45.15
2022-10-26T20:03:41.257Z,45.15
2022-10-26T20:06:12.942Z,49.92
2022-10-26T20:08:41.938Z,44.78
2022-10-26T20:11:13.149Z,42.42
2022-10-26T20:16:10.810Z,47.20
2022-10-26T20:18:39.153Z,45.97
2022-10-26T20:21:09.350Z,42.45
2022-10-26T20:23:36.858Z,44.22
2022-10-26T20:26:04.002Z,43.42
2022-10-26T20:28:31.098Z,44.42
2022-10-26T20:30:59.484Z,38.92
2022-10-26T20:33:27.496Z,41.65
2022-10-26T20:35:58.848Z,46.70
2022-10-26T20:38:26.714Z,46.35
2022-10-26T20:40:58.804Z,52.47
2022-10-26T20:43:26.949Z,44.67
2022-10-26T20:45:56.093Z,45.53
2022-10-26T20:48:23.760Z,48.17
2022-10-26T20:50:59.304Z,47.38
2022-10-26T20:53:42.587Z,50.38
2022-10-26T20:56:35.890Z,45.35
2022-10-26T20:59:04.889Z,43.70
2022-10-26T21:01:35.182Z,41.20
2022-10-26T21:04:03.765Z,47.40
2022-10-26T21:06:40.515Z,40.63
2022-10-26T21:09:09.030Z,45.47
2022-10-26T21:11:36.200Z,44.67
2022-10-26T21:14:05.193Z,42.95
2022-10-26T21:16:33.204Z,46.97
2022-10-26T21:19:00.413Z,38.95
2022-10-26T21:21:27.365Z,40.20
2022-10-26T21:23:54.607Z,42.08
2022-10-26T21:26:21.557Z,43.22
2022-10-26T21:28:49.172Z,45.47
2022-10-26T21:31:17.994Z,48.70
2022-10-26T21:33:46.191Z,48.35
2022-10-26T21:36:13.756Z,46.05
2022-10-26T21:38:43.717Z,40.25
2022-10-26T21:41:12.328Z,43.30
2022-10-26T21:43:41.011Z,52.08
2022-10-26T21:46:09.228Z,45.03
2022-10-26T21:48:36.574Z,45.95
2022-10-26T21:51:08.522Z,43.88
2022-10-26T21:53:35.491Z,38.25
2022-10-26T21:56:04.361Z,40.85
2022-10-26T21:58:31.659Z,42.13
2022-10-26T22:01:10.571Z,41.50
2022-10-26T22:03:39.172Z,37.22
2022-10-26T22:06:07.656Z,42.88
2022-10-26T22:08:35.471Z,44.92
2022-10-26T22:11:15.155Z,47.63
2022-10-26T22:13:43.789Z,41.63
2022-10-26T22:16:16.958Z,46.05
2022-10-26T22:18:45.305Z,42.88
2022-10-26T22:21:13.783Z,41.28
2022-10-26T22:23:41.866Z,42.80
2022-10-26T22:26:15.609Z,46.58
2022-10-26T22:31:13.999Z,44.67
2022-10-26T22:33:41.692Z,35.80
2022-10-26T22:36:14.396Z,38.22
2022-10-26T22:38:42.188Z,38.50
2022-10-26T22:41:10.599Z,42.88
2022-10-26T22:43:38.176Z,41.22
2022-10-26T22:46:06.993Z,42.55
2022-10-26T22:48:35.092Z,47.13
2022-10-26T22:51:10.179Z,35.88
2022-10-26T22:53:37.187Z,36.33
2022-10-26T22:56:06.534Z,38.03
2022-10-26T22:58:37.524Z,44.45
2022-10-26T23:01:14.164Z,46.10
2022-10-26T23:03:41.320Z,45.45
2022-10-26T23:06:10.616Z,51.72
2022-10-26T23:08:37.717Z,43.42
2022-10-26T23:11:06.863Z,45.88
2022-10-26T23:13:34.172Z,45.42
2022-10-26T23:16:12.792Z,48.15
2022-10-26T23:18:40.462Z,40.75
2022-10-26T23:21:09.390Z,47.90
2022-10-26T23:23:36.816Z,48.63
2022-10-26T23:26:15.297Z,40.55
2022-10-26T23:28:43.188Z,48.17
2022-10-26T23:31:18.711Z,50.08
2022-10-26T23:33:46.076Z,48.75
2022-10-26T23:36:13.244Z,54.25
2022-10-26T23:38:40.327Z,48.35
2022-10-26T23:41:09.591Z,49.33
2022-10-26T23:43:39.517Z,53.10
2022-10-26T23:46:06.988Z,47.72
2022-10-26T23:48:34.013Z,51.78
2022-10-26T23:51:00.999Z,51.63
2022-10-26T23:53:28.014Z,53.38
2022-10-26T23:55:55.035Z,48.97
2022-10-26T23:58:22.128Z,53.60
